This is the latest recevied weather packets stored in our database for station/object OK2KJT-11. If no packets are shown the sender has not sent any weather packets the latest 10 day(s).
| Time | Temp. | Humidity | Pressure | Rain* | Wind** | Luminosity | Snow |
|---|---|---|---|---|---|---|---|
| 1787657628 | 14.44° C | 70% | 1017.9 hPa | - | - | - | - |
| 1787657028 | 15° C | 69% | 1017.9 hPa | - | - | - | - |
| 1787656428 | 15° C | 68% | 1017.9 hPa | - | - | - | - |
| 1787655829 | 15° C | 67% | 1018 hPa | - | - | - | - |
| 1787655229 | 15.56° C | 68% | 1018.2 hPa | - | - | - | - |
| 1787654629 | 15.56° C | 69% | 1018.2 hPa | - | - | - | - |
| 1787654030 | 15.56° C | 67% | 1018.2 hPa | - | - | - | - |
| 1787653430 | 16.11° C | 66% | 1018.3 hPa | - | - | - | - |
| 1787652830 | 16.11° C | 67% | 1018.3 hPa | - | - | - | - |
| 1787652230 | 15.56° C | 68% | 1018.3 hPa | - | - | - | - |
| 1787651631 | 15° C | 68% | 1018.4 hPa | - | - | - | - |
| 1787651031 | 15.56° C | 66% | 1018.3 hPa | - | - | - | - |
| 1787650431 | 15.56° C | 66% | 1018.4 hPa | - | - | - | - |
| 1787649831 | 16.11° C | 64% | 1018.6 hPa | - | - | - | - |
| 1787649231 | 16.11° C | 62% | 1018.3 hPa | - | - | - | - |
| 1787648631 | 16.67° C | 62% | 1018.5 hPa | - | - | - | - |
| 1787648031 | 17.78° C | 59% | 1018.4 hPa | - | - | - | - |
| 1787647431 | 18.33° C | 59% | 1018.3 hPa | - | - | - | - |
| 1787646832 | 18.33° C | 57% | 1018.2 hPa | - | - | - | - |
| 1787646232 | 18.89° C | 57% | 1018.2 hPa | - | - | - | - |
| 1787645632 | 18.33° C | 58% | 1018.1 hPa | - | - | - | - |
| 1787645032 | 17.22° C | 62% | 1018 hPa | - | - | - | - |
| 1787644432 | 17.22° C | 61% | 1018.1 hPa | - | - | - | - |
| 1787643832 | 16.67° C | 64% | 1018.1 hPa | - | - | - | - |
| 1787643232 | 15.56° C | 65% | 1018 hPa | - | - | - | - |
* Rain since midnight (hover to see other rain measurements)
** Current wind speed in m/s (hover to see current wind gust speed)